createdAt,value
2023-04-19T00:00:12.913Z,99890.34
2023-04-19T00:02:42.855Z,99891.56
2023-04-19T00:05:12.067Z,99880.88
2023-04-19T00:07:39.593Z,99875.75
2023-04-19T00:10:07.927Z,99874.31
2023-04-19T00:12:35.266Z,99877.56
2023-04-19T00:15:02.640Z,99866.59
2023-04-19T00:17:30.702Z,99872.16
2023-04-19T00:19:58.296Z,99866.34
2023-04-19T00:22:26.279Z,99866.94
2023-04-19T00:24:54.173Z,99869.19
2023-04-19T00:27:21.667Z,99866.00
2023-04-19T00:29:49.193Z,99862.47
2023-04-19T00:32:16.907Z,99864.09
2023-04-19T00:34:44.331Z,99859.50
2023-04-19T00:37:11.829Z,99852.91
2023-04-19T00:39:40.351Z,99858.16
2023-04-19T00:42:07.834Z,99861.00
2023-04-19T00:44:35.328Z,99863.53
2023-04-19T00:47:03.198Z,99860.72
2023-04-19T00:49:30.957Z,99854.00
2023-04-19T00:51:58.420Z,99857.94
2023-04-19T00:54:26.723Z,99857.13
2023-04-19T00:56:54.114Z,99848.22
2023-04-19T00:59:21.550Z,99854.94
2023-04-19T01:01:49.290Z,99855.87
2023-04-19T01:04:17.359Z,99851.13
2023-04-19T01:06:47.286Z,99851.94
2023-04-19T01:09:15.058Z,99847.59
2023-04-19T01:11:43.334Z,99843.00
2023-04-19T01:14:11.095Z,99848.66
2023-04-19T01:16:39.340Z,99849.03
2023-04-19T01:19:06.805Z,99831.94
2023-04-19T01:21:38.329Z,99837.56
2023-04-19T01:24:06.611Z,99835.28
2023-04-19T01:26:33.893Z,99836.03
2023-04-19T01:29:02.952Z,99829.47
2023-04-19T01:31:30.490Z,99835.38
2023-04-19T01:33:57.733Z,99830.88
2023-04-19T01:36:24.908Z,99819.72
2023-04-19T01:38:52.395Z,99826.63
2023-04-19T01:41:20.590Z,99825.72
2023-04-19T01:43:47.812Z,99822.53
2023-04-19T01:46:15.277Z,99825.78
2023-04-19T01:48:42.494Z,99821.97
2023-04-19T01:51:09.660Z,99814.00
2023-04-19T01:53:37.164Z,99814.84
2023-04-19T01:56:04.388Z,99820.44
2023-04-19T01:58:31.552Z,99815.78
2023-04-19T02:00:59.210Z,99803.94
2023-04-19T02:03:26.924Z,99806.91
2023-04-19T02:05:54.261Z,99817.63
2023-04-19T02:08:22.303Z,99808.75
2023-04-19T02:10:49.731Z,99807.69
2023-04-19T02:13:17.524Z,99804.59
2023-04-19T02:15:44.767Z,99803.87
2023-04-19T02:18:13.584Z,99801.78
2023-04-19T02:20:40.797Z,99794.19
2023-04-19T02:23:07.934Z,99796.91
2023-04-19T02:25:35.421Z,99800.03
2023-04-19T02:28:02.907Z,99797.16
2023-04-19T02:30:30.303Z,99792.88
2023-04-19T02:32:58.771Z,99805.81
2023-04-19T02:35:26.297Z,99789.53
2023-04-19T02:37:53.468Z,99788.56
2023-04-19T02:40:22.877Z,99781.13
2023-04-19T02:42:51.209Z,99781.72
2023-04-19T02:45:18.346Z,99770.31
2023-04-19T02:47:46.967Z,99775.59
2023-04-19T02:50:15.296Z,99774.72
2023-04-19T02:52:42.840Z,99774.50
2023-04-19T02:55:10.052Z,99775.22
2023-04-19T02:57:37.791Z,99776.47
2023-04-19T03:00:05.891Z,99769.62
2023-04-19T03:02:33.461Z,99773.13
2023-04-19T03:05:01.286Z,99761.75
2023-04-19T03:07:28.457Z,99761.81
2023-04-19T03:09:55.634Z,99765.22
2023-04-19T03:12:23.116Z,99765.72
2023-04-19T03:14:50.323Z,99761.38
2023-04-19T03:17:17.552Z,99768.12
2023-04-19T03:19:45.372Z,99758.38
2023-04-19T03:22:12.550Z,99760.72
2023-04-19T03:24:39.898Z,99756.22
2023-04-19T03:27:07.964Z,99755.06
2023-04-19T03:29:35.320Z,99750.03
2023-04-19T03:32:02.652Z,99745.16
2023-04-19T03:34:30.327Z,99749.34
2023-04-19T03:36:57.496Z,99754.41
2023-04-19T03:39:25.104Z,99742.47
2023-04-19T03:41:53.804Z,99747.38
2023-04-19T03:44:21.299Z,99746.22
2023-04-19T03:46:48.989Z,99752.34
2023-04-19T03:49:16.801Z,99749.37
2023-04-19T03:51:44.422Z,99749.25
2023-04-19T03:54:11.936Z,99743.69
2023-04-19T03:56:39.354Z,99745.62
2023-04-19T03:59:06.750Z,99743.91
2023-04-19T04:01:34.299Z,99751.34
2023-04-19T04:04:04.671Z,99746.09
2023-04-19T04:06:32.246Z,99746.56
2023-04-19T04:08:59.847Z,99745.75
2023-04-19T04:11:27.304Z,99743.13
2023-04-19T04:13:56.047Z,99743.78
2023-04-19T04:16:23.865Z,99743.38
2023-04-19T04:18:51.696Z,99739.16
2023-04-19T04:21:19.062Z,99744.03
2023-04-19T04:23:47.266Z,99743.69
2023-04-19T04:26:15.211Z,99737.84
2023-04-19T04:28:43.855Z,99740.44
2023-04-19T04:31:12.975Z,99743.34
2023-04-19T04:33:41.705Z,99738.94
2023-04-19T04:36:12.082Z,99747.19
2023-04-19T04:38:39.628Z,99743.81
2023-04-19T04:41:07.042Z,99748.87
2023-04-19T04:43:34.652Z,99747.53
2023-04-19T04:46:02.151Z,99736.81
2023-04-19T04:48:31.496Z,99738.28
2023-04-19T04:50:58.696Z,99738.69
2023-04-19T04:53:26.675Z,99739.75
2023-04-19T04:55:54.307Z,99739.41
2023-04-19T04:58:21.517Z,99741.59
2023-04-19T05:00:49.927Z,99736.34
2023-04-19T05:03:18.232Z,99735.88
2023-04-19T05:05:46.083Z,99736.28
2023-04-19T05:08:13.490Z,99738.53
2023-04-19T05:10:41.595Z,99735.13
2023-04-19T05:13:08.847Z,99731.38
2023-04-19T05:15:36.087Z,99730.06
2023-04-19T05:18:04.025Z,99738.75
2023-04-19T05:20:31.696Z,99724.88
2023-04-19T05:23:00.490Z,99726.84
2023-04-19T05:25:28.068Z,99731.50
2023-04-19T05:27:55.822Z,99731.94
2023-04-19T05:30:23.090Z,99732.25
2023-04-19T05:32:52.652Z,99726.81
2023-04-19T05:35:20.229Z,99729.44
2023-04-19T05:37:47.538Z,99723.41
2023-04-19T05:40:15.333Z,99734.06
2023-04-19T05:42:42.654Z,99721.63
2023-04-19T05:45:10.669Z,99719.75
2023-04-19T05:47:39.685Z,99722.56
2023-04-19T05:50:08.994Z,99727.44
2023-04-19T05:52:36.395Z,99730.62
2023-04-19T05:55:04.700Z,99722.91
2023-04-19T05:57:32.547Z,99723.41
2023-04-19T06:02:40.849Z,99721.63
2023-04-19T06:05:10.794Z,99727.97
2023-04-19T06:07:43.190Z,99722.12
2023-04-19T06:10:14.970Z,99723.09
2023-04-19T06:12:42.719Z,99715.25
2023-04-19T06:15:10.322Z,99726.66
2023-04-19T06:17:37.947Z,99716.22
2023-04-19T06:20:07.732Z,99711.59
2023-04-19T06:22:35.042Z,99716.44
2023-04-19T06:25:03.634Z,99712.47
2023-04-19T06:27:30.824Z,99712.28
2023-04-19T06:30:00.934Z,99704.22
2023-04-19T06:32:28.860Z,99703.66
2023-04-19T06:34:56.147Z,99709.00
2023-04-19T06:37:23.436Z,99706.25
2023-04-19T06:39:50.963Z,99709.13
2023-04-19T06:42:20.137Z,99700.72
2023-04-19T06:44:47.296Z,99696.31
2023-04-19T06:47:15.164Z,99697.63
2023-04-19T06:49:42.458Z,99679.78
2023-04-19T06:52:10.074Z,99686.09
2023-04-19T06:54:37.554Z,99688.75
2023-04-19T06:57:04.731Z,99692.25
2023-04-19T06:59:32.459Z,99681.84
2023-04-19T07:02:00.011Z,99694.72
2023-04-19T07:04:27.816Z,99687.47
2023-04-19T07:06:55.154Z,99694.03
2023-04-19T07:09:22.696Z,99680.84
2023-04-19T07:11:51.373Z,99686.72
2023-04-19T07:14:19.356Z,99694.19
2023-04-19T07:16:47.375Z,99694.50
2023-04-19T07:19:14.648Z,99685.72
2023-04-19T07:21:41.968Z,99691.47
2023-04-19T07:24:09.374Z,99682.31
2023-04-19T07:26:36.683Z,99689.03
2023-04-19T07:29:03.860Z,99690.34
2023-04-19T07:31:31.466Z,99688.16
2023-04-19T07:33:58.622Z,99689.19
2023-04-19T07:36:25.794Z,99696.94
2023-04-19T07:38:53.587Z,99689.19
2023-04-19T07:41:21.468Z,99689.28
2023-04-19T07:43:48.668Z,99687.59
2023-04-19T07:46:16.433Z,99687.94
2023-04-19T07:48:43.674Z,99679.34
2023-04-19T07:51:17.004Z,99680.94
2023-04-19T07:53:44.482Z,99680.06
2023-04-19T07:56:12.912Z,99686.75
2023-04-19T07:58:41.556Z,99680.81
2023-04-19T08:01:09.345Z,99680.13
2023-04-19T08:03:37.935Z,99683.06
2023-04-19T08:06:07.190Z,99672.25
2023-04-19T08:08:34.870Z,99679.63
2023-04-19T08:11:02.611Z,99681.91
2023-04-19T08:13:30.270Z,99672.38
2023-04-19T08:18:28.336Z,99684.16
2023-04-19T08:20:56.730Z,99679.88
2023-04-19T08:23:29.437Z,99678.97
2023-04-19T08:25:59.589Z,99670.06
2023-04-19T08:28:26.850Z,99664.66
2023-04-19T08:30:54.630Z,99666.22
2023-04-19T08:33:22.419Z,99674.03
2023-04-19T08:35:49.604Z,99669.78
2023-04-19T08:38:16.825Z,99670.28
2023-04-19T08:40:47.580Z,99665.81
2023-04-19T08:43:15.449Z,99662.88
2023-04-19T08:45:42.717Z,99656.88
2023-04-19T08:48:11.938Z,99666.81
2023-04-19T08:50:55.785Z,99663.34
2023-04-19T08:53:29.546Z,99649.78
2023-04-19T08:56:12.863Z,99659.38
2023-04-19T08:59:04.084Z,99658.50
2023-04-19T09:01:36.297Z,99644.00
2023-04-19T09:04:20.847Z,99655.72
2023-04-19T09:06:53.606Z,99657.87
2023-04-19T09:09:33.974Z,99652.38
2023-04-19T09:12:04.231Z,99654.47
2023-04-19T09:14:31.793Z,99653.81
2023-04-19T09:17:17.444Z,99650.81
2023-04-19T09:19:48.899Z,99654.88
2023-04-19T09:22:16.205Z,99647.47
2023-04-19T09:27:16.807Z,99642.09
2023-04-19T09:29:46.467Z,99642.81
2023-04-19T09:32:13.945Z,99632.53
2023-04-19T09:34:51.632Z,99634.97
2023-04-19T09:37:32.974Z,99636.50
2023-04-19T09:40:22.294Z,99626.91
2023-04-19T09:48:07.874Z,99632.63
2023-04-19T09:50:46.688Z,99629.81
2023-04-19T09:53:22.507Z,99633.16
2023-04-19T09:56:00.593Z,99635.56
2023-04-19T09:58:38.278Z,99632.03
2023-04-19T10:01:16.274Z,99632.22
2023-04-19T10:03:48.508Z,99635.78
2023-04-19T10:06:40.168Z,99619.59
2023-04-19T10:09:05.052Z,99619.75
2023-04-19T10:11:38.507Z,99613.75
2023-04-19T10:14:10.037Z,99617.03
2023-04-19T10:16:38.514Z,99602.91
2023-04-19T10:19:07.696Z,99617.38
2023-04-19T10:21:36.839Z,99627.75
2023-04-19T10:24:04.243Z,99618.25
2023-04-19T10:26:32.716Z,99622.41
2023-04-19T10:28:59.882Z,99603.56
2023-04-19T10:31:27.197Z,99610.34
2023-04-19T10:33:54.854Z,99611.28
2023-04-19T10:36:22.441Z,99614.13
2023-04-19T10:38:52.014Z,99609.16
2023-04-19T10:41:19.669Z,99604.47
2023-04-19T10:43:56.149Z,99600.94
2023-04-19T10:46:29.037Z,99605.72
2023-04-19T10:49:00.703Z,99608.16
2023-04-19T10:51:33.193Z,99607.41
2023-04-19T10:54:01.690Z,99607.81
2023-04-19T10:56:35.822Z,99594.19
2023-04-19T10:59:11.768Z,99601.34
2023-04-19T11:01:43.947Z,99605.00
2023-04-19T11:04:12.090Z,99601.12
2023-04-19T11:06:52.459Z,99602.41
2023-04-19T11:09:28.819Z,99589.81
2023-04-19T11:12:01.294Z,99594.41
2023-04-19T11:14:30.320Z,99587.00
2023-04-19T11:16:57.926Z,99586.66
2023-04-19T11:19:25.225Z,99586.81
2023-04-19T11:21:52.406Z,99589.78
2023-04-19T11:24:20.819Z,99580.06
2023-04-19T11:26:52.149Z,99590.97
2023-04-19T11:29:21.962Z,99584.09
2023-04-19T11:31:49.308Z,99579.19
2023-04-19T11:34:16.883Z,99580.13
2023-04-19T11:36:51.277Z,99587.53
2023-04-19T11:39:18.721Z,99586.12
2023-04-19T11:41:47.426Z,99584.38
2023-04-19T11:44:15.862Z,99576.28
2023-04-19T11:46:43.884Z,99585.06
2023-04-19T11:49:11.481Z,99586.09
2023-04-19T11:51:41.705Z,99588.22
2023-04-19T11:54:16.937Z,99598.28
2023-04-19T11:56:57.562Z,99589.81
2023-04-19T11:59:24.752Z,99596.69
2023-04-19T12:01:52.205Z,99591.41
2023-04-19T12:04:21.312Z,99595.84
2023-04-19T12:06:59.552Z,99594.00
2023-04-19T12:09:27.225Z,99578.91
2023-04-19T12:11:54.386Z,99590.47
2023-04-19T12:14:23.052Z,99584.81
2023-04-19T12:17:07.456Z,99593.41
2023-04-19T12:19:35.541Z,99586.88
2023-04-19T12:22:13.732Z,99585.12
2023-04-19T12:24:41.000Z,99581.19
2023-04-19T12:27:08.675Z,99583.13
2023-04-19T12:29:38.347Z,99571.47
2023-04-19T12:32:05.978Z,99571.22
2023-04-19T12:34:33.489Z,99564.78
2023-04-19T12:37:00.911Z,99571.44
2023-04-19T12:39:28.955Z,99564.88
2023-04-19T12:41:56.682Z,99568.91
2023-04-19T12:44:23.874Z,99559.31
2023-04-19T12:46:51.062Z,99561.91
2023-04-19T12:49:19.937Z,99556.28
2023-04-19T12:51:47.776Z,99558.47
2023-04-19T12:54:15.368Z,99556.94
2023-04-19T12:56:42.846Z,99559.47
2023-04-19T12:59:10.028Z,99562.72
2023-04-19T13:01:37.266Z,99558.53
2023-04-19T13:04:04.966Z,99550.91
2023-04-19T13:06:32.351Z,99556.03
2023-04-19T13:09:01.205Z,99547.72
2023-04-19T13:11:29.304Z,99549.59
2023-04-19T13:13:56.475Z,99548.81
2023-04-19T13:16:23.808Z,99558.00
2023-04-19T13:18:52.633Z,99550.50
2023-04-19T13:21:20.247Z,99555.06
2023-04-19T13:23:47.581Z,99542.84
2023-04-19T13:26:15.798Z,99551.91
2023-04-19T13:28:43.043Z,99557.91
2023-04-19T13:31:10.304Z,99561.56
2023-04-19T13:33:37.783Z,99555.22
2023-04-19T13:36:05.253Z,99551.87
2023-04-19T13:38:32.652Z,99556.16
2023-04-19T13:41:00.068Z,99559.03
2023-04-19T13:43:27.322Z,99560.13
2023-04-19T13:45:54.616Z,99546.19
2023-04-19T13:48:22.079Z,99554.97
2023-04-19T13:50:51.034Z,99556.84
2023-04-19T13:53:21.029Z,99554.75
2023-04-19T13:55:48.472Z,99544.81
2023-04-19T13:58:15.646Z,99552.09
2023-04-19T14:00:42.972Z,99546.19
2023-04-19T14:03:10.900Z,99556.28
2023-04-19T14:05:38.191Z,99544.59
2023-04-19T14:08:05.666Z,99537.66
2023-04-19T14:10:33.078Z,99543.91
2023-04-19T14:13:00.234Z,99547.12
2023-04-19T14:15:27.502Z,99556.47
2023-04-19T14:17:55.075Z,99552.75
2023-04-19T14:20:22.359Z,99551.72
2023-04-19T14:22:49.565Z,99557.47
2023-04-19T14:25:18.216Z,99550.75
2023-04-19T14:27:45.495Z,99547.75
2023-04-19T14:30:12.866Z,99545.69
2023-04-19T14:32:40.473Z,99543.59
2023-04-19T14:35:08.659Z,99542.13
2023-04-19T14:37:36.013Z,99547.00
2023-04-19T14:40:03.696Z,99546.72
2023-04-19T14:42:31.260Z,99548.06
2023-04-19T14:44:58.488Z,99545.78
2023-04-19T14:47:26.024Z,99544.03
2023-04-19T14:49:53.324Z,99542.31
2023-04-19T14:52:21.324Z,99537.66
2023-04-19T14:54:48.928Z,99548.06
2023-04-19T14:57:16.385Z,99548.56
2023-04-19T14:59:43.575Z,99555.59
2023-04-19T15:02:13.419Z,99552.13
2023-04-19T15:04:41.709Z,99540.94
2023-04-19T15:07:09.497Z,99549.38
2023-04-19T15:09:37.023Z,99560.41
2023-04-19T15:12:04.251Z,99554.00
2023-04-19T15:14:31.657Z,99562.69
2023-04-19T15:16:59.127Z,99565.28
2023-04-19T15:19:26.513Z,99567.50
2023-04-19T15:21:53.688Z,99563.88
2023-04-19T15:24:21.140Z,99577.00
2023-04-19T15:26:48.566Z,99574.50
2023-04-19T15:29:16.469Z,99575.00
2023-04-19T15:31:44.190Z,99573.66
2023-04-19T15:34:11.472Z,99582.53
2023-04-19T15:36:40.385Z,99571.78
2023-04-19T15:39:08.091Z,99578.84
2023-04-19T15:41:36.256Z,99578.62
2023-04-19T15:44:03.443Z,99572.22
2023-04-19T15:46:31.035Z,99585.09
2023-04-19T15:48:58.261Z,99578.50
2023-04-19T15:51:25.414Z,99584.25
2023-04-19T15:53:52.911Z,99577.38
2023-04-19T15:56:20.118Z,99579.50
2023-04-19T15:58:47.251Z,99577.66
2023-04-19T16:01:16.305Z,99575.34
2023-04-19T16:03:45.518Z,99586.84
2023-04-19T16:06:13.748Z,99584.41
2023-04-19T16:08:40.969Z,99590.75
2023-04-19T16:11:08.566Z,99586.78
2023-04-19T16:13:35.734Z,99585.88
2023-04-19T16:16:02.935Z,99589.81
2023-04-19T16:18:30.671Z,99582.28
2023-04-19T16:20:57.816Z,99588.34
2023-04-19T16:23:25.243Z,99592.06
2023-04-19T16:25:53.803Z,99590.94
2023-04-19T16:28:22.630Z,99587.84
2023-04-19T16:30:49.906Z,99581.31
2023-04-19T16:33:17.420Z,99586.84
2023-04-19T16:35:44.812Z,99591.66
2023-04-19T16:38:11.997Z,99598.88
2023-04-19T16:40:39.562Z,99592.47
2023-04-19T16:43:06.790Z,99602.72
2023-04-19T16:45:34.172Z,99595.94
2023-04-19T16:48:02.339Z,99598.63
2023-04-19T16:50:29.608Z,99602.59
2023-04-19T16:52:57.007Z,99604.53
2023-04-19T16:55:24.476Z,99604.59
2023-04-19T16:57:53.711Z,99610.28
2023-04-19T17:00:22.348Z,99612.41
2023-04-19T17:02:50.766Z,99608.97
2023-04-19T17:05:18.114Z,99606.66
2023-04-19T17:07:45.477Z,99621.00
2023-04-19T17:10:13.245Z,99614.66
2023-04-19T17:12:41.285Z,99629.69
2023-04-19T17:15:08.825Z,99632.34
2023-04-19T17:17:36.886Z,99632.28
2023-04-19T17:20:06.268Z,99633.59
2023-04-19T17:22:33.515Z,99630.00
2023-04-19T17:25:02.385Z,99641.69
2023-04-19T17:27:30.135Z,99638.41
2023-04-19T17:29:57.414Z,99645.03
2023-04-19T17:32:25.644Z,99646.53
2023-04-19T17:34:55.602Z,99644.56
2023-04-19T17:37:23.044Z,99652.22
2023-04-19T17:39:51.279Z,99650.91
2023-04-19T17:42:20.130Z,99654.28
2023-04-19T17:44:48.816Z,99655.38
2023-04-19T17:47:17.150Z,99667.59
2023-04-19T17:49:45.350Z,99665.00
2023-04-19T17:52:13.702Z,99667.06
2023-04-19T17:54:41.682Z,99666.72
2023-04-19T17:57:09.657Z,99674.66
2023-04-19T17:59:37.593Z,99682.28
2023-04-19T18:02:06.120Z,99675.31
2023-04-19T18:04:37.745Z,99676.53
2023-04-19T18:07:06.453Z,99690.34
2023-04-19T18:09:34.118Z,99686.63
2023-04-19T18:12:03.172Z,99691.25
2023-04-19T18:14:31.340Z,99696.19
2023-04-19T18:16:59.346Z,99699.75
2023-04-19T18:19:28.228Z,99705.28
2023-04-19T18:21:56.421Z,99715.66
2023-04-19T18:24:24.624Z,99719.50
2023-04-19T18:26:52.550Z,99715.53
2023-04-19T18:29:21.387Z,99718.47
2023-04-19T18:31:49.197Z,99717.25
2023-04-19T18:34:17.940Z,99724.91
2023-04-19T18:36:45.760Z,99723.25
2023-04-19T18:39:14.551Z,99731.69
2023-04-19T18:41:42.994Z,99730.88
2023-04-19T18:46:43.249Z,99730.72
2023-04-19T18:49:12.741Z,99731.44
2023-04-19T18:51:40.756Z,99734.25
2023-04-19T18:54:09.619Z,99737.09
2023-04-19T18:59:10.489Z,99734.69
2023-04-19T19:01:42.348Z,99740.94
2023-04-19T19:06:42.275Z,99742.37
2023-04-19T19:09:12.321Z,99747.41
2023-04-19T19:11:56.193Z,99749.63
2023-04-19T19:14:27.464Z,99746.94
2023-04-19T19:16:55.353Z,99751.84
2023-04-19T19:19:23.571Z,99755.94
2023-04-19T19:21:54.914Z,99756.09
2023-04-19T19:24:23.969Z,99755.91
2023-04-19T19:26:54.906Z,99756.09
2023-04-19T19:29:23.183Z,99756.63
2023-04-19T19:31:51.575Z,99754.50
2023-04-19T19:34:28.905Z,99762.22
2023-04-19T19:36:58.553Z,99755.06
2023-04-19T19:39:28.607Z,99769.72
2023-04-19T19:42:05.758Z,99763.91
2023-04-19T19:44:35.415Z,99761.88
2023-04-19T19:47:09.339Z,99769.84
2023-04-19T19:52:28.686Z,99777.94
2023-04-19T19:54:59.052Z,99778.19
2023-04-19T20:00:18.253Z,99775.56
2023-04-19T20:05:19.194Z,99771.25
2023-04-19T20:10:21.727Z,99773.16
2023-04-19T20:12:50.375Z,99773.00
2023-04-19T20:15:18.595Z,99777.91
2023-04-19T20:17:47.542Z,99774.59
2023-04-19T20:20:15.799Z,99779.00
2023-04-19T20:22:45.109Z,99783.50
2023-04-19T20:25:14.082Z,99786.38
2023-04-19T20:27:43.359Z,99785.44
2023-04-19T20:30:11.455Z,99782.44
2023-04-19T20:32:42.933Z,99784.41
2023-04-19T20:35:12.673Z,99786.38
2023-04-19T20:37:42.191Z,99802.41
2023-04-19T20:40:12.669Z,99793.69
2023-04-19T20:42:41.911Z,99787.37
2023-04-19T20:45:13.244Z,99788.78
2023-04-19T20:47:41.635Z,99790.13
2023-04-19T20:50:10.912Z,99793.59
2023-04-19T20:52:38.457Z,99800.97
2023-04-19T20:55:07.714Z,99796.41
2023-04-19T20:57:35.043Z,99796.19
2023-04-19T21:00:02.244Z,99791.59
2023-04-19T21:02:31.579Z,99801.00
2023-04-19T21:04:58.884Z,99805.16
2023-04-19T21:07:26.036Z,99808.38
2023-04-19T21:09:53.454Z,99817.56
2023-04-19T21:12:21.192Z,99811.94
2023-04-19T21:14:49.900Z,99816.56
2023-04-19T21:17:17.350Z,99816.66
2023-04-19T21:19:44.578Z,99811.34
2023-04-19T21:22:11.814Z,99811.13
2023-04-19T21:24:39.295Z,99808.50
2023-04-19T21:27:06.455Z,99805.72
2023-04-19T21:29:33.727Z,99806.28
2023-04-19T21:32:01.400Z,99810.22
2023-04-19T21:34:28.640Z,99813.56
2023-04-19T21:36:55.983Z,99806.09
2023-04-19T21:39:23.545Z,99804.56
2023-04-19T21:41:50.856Z,99810.66
2023-04-19T21:44:18.023Z,99812.94
2023-04-19T21:46:46.251Z,99812.09
2023-04-19T21:49:13.495Z,99812.66
2023-04-19T21:51:41.143Z,99813.03
2023-04-19T21:54:08.668Z,99810.44
2023-04-19T21:56:37.143Z,99811.00
2023-04-19T21:59:04.302Z,99814.66
2023-04-19T22:01:31.744Z,99813.84
2023-04-19T22:03:59.742Z,99808.34
2023-04-19T22:06:27.805Z,99809.50
2023-04-19T22:08:55.046Z,99817.41
2023-04-19T22:11:22.524Z,99815.75
2023-04-19T22:13:50.250Z,99814.25
2023-04-19T22:16:17.593Z,99826.72
2023-04-19T22:18:45.041Z,99822.91
2023-04-19T22:21:12.228Z,99816.34
2023-04-19T22:23:39.370Z,99821.25
2023-04-19T22:26:06.833Z,99824.13
2023-04-19T22:28:36.003Z,99822.12
2023-04-19T22:31:03.552Z,99830.28
2023-04-19T22:33:31.135Z,99832.06
2023-04-19T22:35:58.296Z,99831.09
2023-04-19T22:38:25.597Z,99816.63
2023-04-19T22:40:53.396Z,99827.91
2023-04-19T22:43:20.852Z,99814.59
2023-04-19T22:45:48.290Z,99820.88
2023-04-19T22:48:15.956Z,99821.22
2023-04-19T22:50:43.659Z,99828.66
2023-04-19T22:53:12.652Z,99830.50
2023-04-19T22:55:40.143Z,99832.81
2023-04-19T22:58:07.685Z,99834.81
2023-04-19T23:00:35.418Z,99835.44
2023-04-19T23:03:02.974Z,99841.00
2023-04-19T23:05:31.042Z,99838.53
2023-04-19T23:08:04.661Z,99841.91
2023-04-19T23:10:37.992Z,99835.75
2023-04-19T23:13:05.941Z,99841.75
2023-04-19T23:15:33.576Z,99835.44
2023-04-19T23:18:02.433Z,99839.03
2023-04-19T23:20:30.704Z,99835.44
2023-04-19T23:22:58.141Z,99838.63
2023-04-19T23:25:25.668Z,99834.72
2023-04-19T23:27:52.876Z,99837.44
2023-04-19T23:30:20.728Z,99839.56
2023-04-19T23:32:47.913Z,99840.41
2023-04-19T23:35:15.092Z,99841.94
2023-04-19T23:37:44.049Z,99833.06
2023-04-19T23:40:11.276Z,99840.66
2023-04-19T23:42:38.548Z,99832.06
2023-04-19T23:45:06.514Z,99838.59
2023-04-19T23:47:34.270Z,99830.59
2023-04-19T23:50:01.564Z,99827.41
2023-04-19T23:52:29.014Z,99835.41
2023-04-19T23:54:56.151Z,99835.97
2023-04-19T23:57:23.327Z,99821.50
2023-04-19T23:59:50.829Z,99823.78
